sensor_id;sensor_type;location;lat;lon;timestamp;P1;durP1;ratioP1;P2;durP2;ratioP2
14984;SDS011;7588;62.368;25.902;2023-06-04T00:00:06;2.53;;;2.10;;
14984;SDS011;7588;62.368;25.902;2023-06-04T00:02:33;3.67;;;2.53;;
14984;SDS011;7588;62.368;25.902;2023-06-04T00:04:58;2.60;;;2.40;;
14984;SDS011;7588;62.368;25.902;2023-06-04T00:07:24;2.60;;;2.40;;
14984;SDS011;7588;62.368;25.902;2023-06-04T00:09:50;3.00;;;2.53;;
14984;SDS011;7588;62.368;25.902;2023-06-04T00:12:16;2.60;;;2.23;;
14984;SDS011;7588;62.368;25.902;2023-06-04T00:14:42;3.23;;;2.60;;
14984;SDS011;7588;62.368;25.902;2023-06-04T00:17:09;3.13;;;2.37;;
14984;SDS011;7588;62.368;25.902;2023-06-04T00:19:35;3.87;;;2.57;;
14984;SDS011;7588;62.368;25.902;2023-06-04T00:22:03;3.73;;;2.30;;
14984;SDS011;7588;62.368;25.902;2023-06-04T00:24:29;2.37;;;2.17;;
14984;SDS011;7588;62.368;25.902;2023-06-04T00:26:55;2.37;;;2.17;;
14984;SDS011;7588;62.368;25.902;2023-06-04T00:29:20;2.33;;;2.07;;
14984;SDS011;7588;62.368;25.902;2023-06-04T00:31:46;3.57;;;2.67;;
14984;SDS011;7588;62.368;25.902;2023-06-04T00:34:12;4.73;;;2.43;;
14984;SDS011;7588;62.368;25.902;2023-06-04T00:36:38;3.23;;;1.97;;
14984;SDS011;7588;62.368;25.902;2023-06-04T00:39:05;2.50;;;2.30;;
14984;SDS011;7588;62.368;25.902;2023-06-04T00:41:30;2.50;;;2.30;;
14984;SDS011;7588;62.368;25.902;2023-06-04T00:43:56;3.00;;;2.40;;
14984;SDS011;7588;62.368;25.902;2023-06-04T00:46:26;4.30;;;2.70;;
14984;SDS011;7588;62.368;25.902;2023-06-04T00:48:53;2.90;;;2.70;;
14984;SDS011;7588;62.368;25.902;2023-06-04T00:51:20;2.60;;;2.40;;
14984;SDS011;7588;62.368;25.902;2023-06-04T00:53:48;2.80;;;2.20;;
14984;SDS011;7588;62.368;25.902;2023-06-04T00:56:14;2.60;;;2.40;;
14984;SDS011;7588;62.368;25.902;2023-06-04T00:58:40;2.83;;;2.63;;
14984;SDS011;7588;62.368;25.902;2023-06-04T01:01:15;3.23;;;2.50;;
14984;SDS011;7588;62.368;25.902;2023-06-04T01:03:54;5.20;;;2.70;;
14984;SDS011;7588;62.368;25.902;2023-06-04T01:06:24;3.17;;;2.70;;
14984;SDS011;7588;62.368;25.902;2023-06-04T01:09:04;2.40;;;2.10;;
14984;SDS011;7588;62.368;25.902;2023-06-04T01:11:31;2.90;;;2.37;;
14984;SDS011;7588;62.368;25.902;2023-06-04T01:13:59;2.57;;;2.13;;
14984;SDS011;7588;62.368;25.902;2023-06-04T01:16:25;4.00;;;2.70;;
14984;SDS011;7588;62.368;25.902;2023-06-04T01:18:54;3.47;;;2.70;;
14984;SDS011;7588;62.368;25.902;2023-06-04T01:21:24;2.23;;;2.03;;
14984;SDS011;7588;62.368;25.902;2023-06-04T01:23:53;4.10;;;2.50;;
14984;SDS011;7588;62.368;25.902;2023-06-04T01:26:24;3.10;;;2.90;;
14984;SDS011;7588;62.368;25.902;2023-06-04T01:28:55;3.13;;;2.60;;
14984;SDS011;7588;62.368;25.902;2023-06-04T01:31:22;3.00;;;2.70;;
14984;SDS011;7588;62.368;25.902;2023-06-04T01:33:52;2.40;;;2.20;;
14984;SDS011;7588;62.368;25.902;2023-06-04T01:36:19;2.77;;;2.57;;
14984;SDS011;7588;62.368;25.902;2023-06-04T01:38:45;3.43;;;2.77;;
14984;SDS011;7588;62.368;25.902;2023-06-04T01:41:11;3.70;;;2.57;;
14984;SDS011;7588;62.368;25.902;2023-06-04T01:43:36;3.23;;;2.70;;
14984;SDS011;7588;62.368;25.902;2023-06-04T01:46:02;3.40;;;2.90;;
14984;SDS011;7588;62.368;25.902;2023-06-04T01:48:28;4.07;;;2.80;;
14984;SDS011;7588;62.368;25.902;2023-06-04T01:50:54;3.10;;;2.80;;
14984;SDS011;7588;62.368;25.902;2023-06-04T01:53:21;3.90;;;2.53;;
14984;SDS011;7588;62.368;25.902;2023-06-04T01:55:47;2.70;;;2.50;;
14984;SDS011;7588;62.368;25.902;2023-06-04T01:58:14;2.87;;;2.60;;
14984;SDS011;7588;62.368;25.902;2023-06-04T02:00:48;3.07;;;2.83;;
14984;SDS011;7588;62.368;25.902;2023-06-04T02:03:14;2.70;;;2.50;;
14984;SDS011;7588;62.368;25.902;2023-06-04T02:05:40;3.30;;;3.00;;
14984;SDS011;7588;62.368;25.902;2023-06-04T02:08:09;3.23;;;2.87;;
14984;SDS011;7588;62.368;25.902;2023-06-04T02:10:36;3.60;;;2.50;;
14984;SDS011;7588;62.368;25.902;2023-06-04T02:13:02;3.37;;;2.60;;
14984;SDS011;7588;62.368;25.902;2023-06-04T02:15:29;3.00;;;2.67;;
14984;SDS011;7588;62.368;25.902;2023-06-04T02:17:57;4.10;;;3.20;;
14984;SDS011;7588;62.368;25.902;2023-06-04T02:20:25;3.00;;;2.80;;
14984;SDS011;7588;62.368;25.902;2023-06-04T02:22:51;3.13;;;2.90;;
14984;SDS011;7588;62.368;25.902;2023-06-04T02:25:18;3.17;;;2.87;;
14984;SDS011;7588;62.368;25.902;2023-06-04T02:27:44;3.10;;;2.80;;
14984;SDS011;7588;62.368;25.902;2023-06-04T02:30:09;3.50;;;2.53;;
14984;SDS011;7588;62.368;25.902;2023-06-04T02:32:35;2.83;;;2.57;;
14984;SDS011;7588;62.368;25.902;2023-06-04T02:35:01;3.67;;;2.80;;
14984;SDS011;7588;62.368;25.902;2023-06-04T02:37:28;3.33;;;3.13;;
14984;SDS011;7588;62.368;25.902;2023-06-04T02:39:53;4.60;;;3.30;;
14984;SDS011;7588;62.368;25.902;2023-06-04T02:42:19;4.40;;;2.90;;
14984;SDS011;7588;62.368;25.902;2023-06-04T02:44:45;3.60;;;3.30;;
14984;SDS011;7588;62.368;25.902;2023-06-04T02:47:10;3.90;;;2.60;;
14984;SDS011;7588;62.368;25.902;2023-06-04T02:49:36;5.00;;;2.93;;
14984;SDS011;7588;62.368;25.902;2023-06-04T02:52:02;4.80;;;2.70;;
14984;SDS011;7588;62.368;25.902;2023-06-04T02:54:27;4.77;;;3.33;;
14984;SDS011;7588;62.368;25.902;2023-06-04T02:56:53;3.73;;;2.70;;
14984;SDS011;7588;62.368;25.902;2023-06-04T02:59:19;3.93;;;3.20;;
14984;SDS011;7588;62.368;25.902;2023-06-04T03:01:45;3.33;;;3.03;;
14984;SDS011;7588;62.368;25.902;2023-06-04T03:04:10;3.43;;;3.00;;
14984;SDS011;7588;62.368;25.902;2023-06-04T03:06:40;3.47;;;3.17;;
14984;SDS011;7588;62.368;25.902;2023-06-04T03:09:09;3.27;;;2.83;;
14984;SDS011;7588;62.368;25.902;2023-06-04T03:11:36;3.60;;;2.90;;
14984;SDS011;7588;62.368;25.902;2023-06-04T03:14:02;2.80;;;2.60;;
14984;SDS011;7588;62.368;25.902;2023-06-04T03:16:27;3.03;;;2.83;;
14984;SDS011;7588;62.368;25.902;2023-06-04T03:18:53;3.07;;;2.70;;
14984;SDS011;7588;62.368;25.902;2023-06-04T03:21:19;3.40;;;2.83;;
14984;SDS011;7588;62.368;25.902;2023-06-04T03:23:45;3.67;;;3.00;;
14984;SDS011;7588;62.368;25.902;2023-06-04T03:26:10;3.23;;;2.93;;
14984;SDS011;7588;62.368;25.902;2023-06-04T03:28:37;3.43;;;3.13;;
14984;SDS011;7588;62.368;25.902;2023-06-04T03:31:03;3.67;;;2.67;;
14984;SDS011;7588;62.368;25.902;2023-06-04T03:33:29;4.27;;;3.10;;
14984;SDS011;7588;62.368;25.902;2023-06-04T03:35:55;2.87;;;2.60;;
14984;SDS011;7588;62.368;25.902;2023-06-04T03:38:24;3.93;;;2.67;;
14984;SDS011;7588;62.368;25.902;2023-06-04T03:40:50;5.23;;;2.80;;
14984;SDS011;7588;62.368;25.902;2023-06-04T03:43:18;4.47;;;3.10;;
14984;SDS011;7588;62.368;25.902;2023-06-04T03:45:46;3.10;;;2.80;;
14984;SDS011;7588;62.368;25.902;2023-06-04T03:48:12;3.37;;;3.07;;
14984;SDS011;7588;62.368;25.902;2023-06-04T03:50:38;4.03;;;3.20;;
14984;SDS011;7588;62.368;25.902;2023-06-04T03:53:03;3.53;;;3.23;;
14984;SDS011;7588;62.368;25.902;2023-06-04T03:55:32;3.90;;;2.90;;
14984;SDS011;7588;62.368;25.902;2023-06-04T03:57:58;3.17;;;2.87;;
14984;SDS011;7588;62.368;25.902;2023-06-04T04:00:24;3.13;;;2.80;;
14984;SDS011;7588;62.368;25.902;2023-06-04T04:02:50;3.00;;;2.70;;
14984;SDS011;7588;62.368;25.902;2023-06-04T04:05:16;4.80;;;3.30;;
14984;SDS011;7588;62.368;25.902;2023-06-04T04:07:42;4.60;;;3.50;;
14984;SDS011;7588;62.368;25.902;2023-06-04T04:10:07;4.13;;;3.50;;
14984;SDS011;7588;62.368;25.902;2023-06-04T04:12:33;4.87;;;3.33;;
14984;SDS011;7588;62.368;25.902;2023-06-04T04:14:59;3.63;;;3.20;;
14984;SDS011;7588;62.368;25.902;2023-06-04T04:17:25;4.47;;;3.00;;
14984;SDS011;7588;62.368;25.902;2023-06-04T04:19:51;3.50;;;3.20;;
14984;SDS011;7588;62.368;25.902;2023-06-04T04:22:16;3.20;;;2.97;;
14984;SDS011;7588;62.368;25.902;2023-06-04T04:24:42;5.20;;;3.53;;
14984;SDS011;7588;62.368;25.902;2023-06-04T04:27:09;3.53;;;3.23;;
14984;SDS011;7588;62.368;25.902;2023-06-04T04:29:37;3.70;;;3.07;;
14984;SDS011;7588;62.368;25.902;2023-06-04T04:32:03;3.43;;;3.03;;
14984;SDS011;7588;62.368;25.902;2023-06-04T04:34:35;3.83;;;3.40;;
14984;SDS011;7588;62.368;25.902;2023-06-04T04:37:05;4.97;;;3.20;;
14984;SDS011;7588;62.368;25.902;2023-06-04T04:39:33;4.00;;;3.53;;
14984;SDS011;7588;62.368;25.902;2023-06-04T04:42:01;4.07;;;3.77;;
14984;SDS011;7588;62.368;25.902;2023-06-04T04:44:27;3.80;;;3.43;;
14984;SDS011;7588;62.368;25.902;2023-06-04T04:46:52;3.77;;;3.40;;
14984;SDS011;7588;62.368;25.902;2023-06-04T04:49:18;6.57;;;3.60;;
14984;SDS011;7588;62.368;25.902;2023-06-04T04:51:44;4.73;;;3.70;;
14984;SDS011;7588;62.368;25.902;2023-06-04T04:54:09;3.97;;;3.67;;
14984;SDS011;7588;62.368;25.902;2023-06-04T04:56:35;6.17;;;4.13;;
14984;SDS011;7588;62.368;25.902;2023-06-04T04:59:01;4.57;;;3.83;;
14984;SDS011;7588;62.368;25.902;2023-06-04T05:01:27;4.43;;;4.00;;
14984;SDS011;7588;62.368;25.902;2023-06-04T05:03:52;5.20;;;4.43;;
14984;SDS011;7588;62.368;25.902;2023-06-04T05:06:18;4.43;;;4.03;;
14984;SDS011;7588;62.368;25.902;2023-06-04T05:08:44;4.90;;;4.50;;
14984;SDS011;7588;62.368;25.902;2023-06-04T05:11:10;4.97;;;4.57;;
14984;SDS011;7588;62.368;25.902;2023-06-04T05:13:36;5.30;;;4.80;;
14984;SDS011;7588;62.368;25.902;2023-06-04T05:16:02;5.63;;;5.03;;
14984;SDS011;7588;62.368;25.902;2023-06-04T05:18:32;7.27;;;5.60;;
14984;SDS011;7588;62.368;25.902;2023-06-04T05:20:59;6.57;;;5.93;;
14984;SDS011;7588;62.368;25.902;2023-06-04T05:23:28;6.47;;;5.97;;
14984;SDS011;7588;62.368;25.902;2023-06-04T05:25:59;6.60;;;6.00;;
14984;SDS011;7588;62.368;25.902;2023-06-04T05:28:26;5.30;;;4.83;;
14984;SDS011;7588;62.368;25.902;2023-06-04T05:30:52;6.20;;;5.60;;
14984;SDS011;7588;62.368;25.902;2023-06-04T05:33:24;5.83;;;4.83;;
14984;SDS011;7588;62.368;25.902;2023-06-04T05:35:50;5.73;;;5.23;;
14984;SDS011;7588;62.368;25.902;2023-06-04T05:38:25;4.60;;;4.20;;
14984;SDS011;7588;62.368;25.902;2023-06-04T05:40:53;4.23;;;3.93;;
14984;SDS011;7588;62.368;25.902;2023-06-04T05:43:20;4.63;;;4.20;;
14984;SDS011;7588;62.368;25.902;2023-06-04T05:45:46;4.70;;;4.30;;
14984;SDS011;7588;62.368;25.902;2023-06-04T05:48:12;4.50;;;4.10;;
14984;SDS011;7588;62.368;25.902;2023-06-04T05:50:38;4.40;;;4.10;;
14984;SDS011;7588;62.368;25.902;2023-06-04T05:53:04;5.17;;;4.37;;
14984;SDS011;7588;62.368;25.902;2023-06-04T05:55:30;5.97;;;4.30;;
14984;SDS011;7588;62.368;25.902;2023-06-04T05:57:56;4.87;;;4.53;;
14984;SDS011;7588;62.368;25.902;2023-06-04T06:00:21;4.33;;;3.87;;
14984;SDS011;7588;62.368;25.902;2023-06-04T06:02:49;5.07;;;4.30;;
14984;SDS011;7588;62.368;25.902;2023-06-04T06:05:15;4.23;;;3.93;;
14984;SDS011;7588;62.368;25.902;2023-06-04T06:07:42;4.10;;;3.80;;
14984;SDS011;7588;62.368;25.902;2023-06-04T06:10:08;4.93;;;4.03;;
14984;SDS011;7588;62.368;25.902;2023-06-04T06:12:34;3.80;;;3.50;;
14984;SDS011;7588;62.368;25.902;2023-06-04T06:15:00;3.47;;;3.20;;
14984;SDS011;7588;62.368;25.902;2023-06-04T06:17:26;4.00;;;3.00;;
14984;SDS011;7588;62.368;25.902;2023-06-04T06:19:52;3.03;;;2.73;;
14984;SDS011;7588;62.368;25.902;2023-06-04T06:22:18;3.60;;;3.30;;
14984;SDS011;7588;62.368;25.902;2023-06-04T06:24:44;4.10;;;3.63;;
14984;SDS011;7588;62.368;25.902;2023-06-04T06:27:10;4.10;;;3.77;;
14984;SDS011;7588;62.368;25.902;2023-06-04T06:29:36;3.67;;;3.40;;
14984;SDS011;7588;62.368;25.902;2023-06-04T06:32:02;4.07;;;3.73;;
14984;SDS011;7588;62.368;25.902;2023-06-04T06:34:28;4.37;;;3.37;;
14984;SDS011;7588;62.368;25.902;2023-06-04T06:36:53;3.50;;;3.20;;
14984;SDS011;7588;62.368;25.902;2023-06-04T06:39:19;4.77;;;3.47;;
14984;SDS011;7588;62.368;25.902;2023-06-04T06:41:45;3.97;;;3.67;;
14984;SDS011;7588;62.368;25.902;2023-06-04T06:44:11;3.60;;;3.30;;
14984;SDS011;7588;62.368;25.902;2023-06-04T06:46:36;3.67;;;3.30;;
14984;SDS011;7588;62.368;25.902;2023-06-04T06:49:02;3.43;;;3.10;;
14984;SDS011;7588;62.368;25.902;2023-06-04T06:51:28;3.17;;;2.90;;
14984;SDS011;7588;62.368;25.902;2023-06-04T06:53:53;3.93;;;3.23;;
14984;SDS011;7588;62.368;25.902;2023-06-04T06:56:19;3.10;;;2.90;;
14984;SDS011;7588;62.368;25.902;2023-06-04T06:58:45;4.70;;;2.63;;
14984;SDS011;7588;62.368;25.902;2023-06-04T07:01:11;2.83;;;2.53;;
14984;SDS011;7588;62.368;25.902;2023-06-04T07:03:37;2.30;;;2.10;;
14984;SDS011;7588;62.368;25.902;2023-06-04T07:06:04;3.03;;;2.13;;
14984;SDS011;7588;62.368;25.902;2023-06-04T07:08:30;3.03;;;2.65;;
14984;SDS011;7588;62.368;25.902;2023-06-04T07:10:57;3.35;;;2.20;;
14984;SDS011;7588;62.368;25.902;2023-06-04T07:13:23;2.22;;;2.03;;
14984;SDS011;7588;62.368;25.902;2023-06-04T07:15:49;2.03;;;1.83;;
14984;SDS011;7588;62.368;25.902;2023-06-04T07:18:15;2.60;;;2.30;;
14984;SDS011;7588;62.368;25.902;2023-06-04T07:20:40;2.28;;;1.95;;
14984;SDS011;7588;62.368;25.902;2023-06-04T07:23:06;2.30;;;2.10;;
14984;SDS011;7588;62.368;25.902;2023-06-04T07:25:32;2.03;;;1.60;;
14984;SDS011;7588;62.368;25.902;2023-06-04T07:27:59;1.65;;;1.55;;
14984;SDS011;7588;62.368;25.902;2023-06-04T07:30:27;1.95;;;1.85;;
14984;SDS011;7588;62.368;25.902;2023-06-04T07:32:53;2.22;;;2.03;;
14984;SDS011;7588;62.368;25.902;2023-06-04T07:35:19;3.13;;;1.60;;
14984;SDS011;7588;62.368;25.902;2023-06-04T07:37:44;1.80;;;1.65;;
14984;SDS011;7588;62.368;25.902;2023-06-04T07:40:12;2.90;;;2.10;;
14984;SDS011;7588;62.368;25.902;2023-06-04T07:42:39;4.75;;;2.45;;
14984;SDS011;7588;62.368;25.902;2023-06-04T07:45:06;3.08;;;2.60;;
14984;SDS011;7588;62.368;25.902;2023-06-04T07:47:32;7.60;;;2.60;;
14984;SDS011;7588;62.368;25.902;2023-06-04T07:49:57;3.47;;;2.63;;
14984;SDS011;7588;62.368;25.902;2023-06-04T07:52:23;3.67;;;2.97;;
14984;SDS011;7588;62.368;25.902;2023-06-04T07:54:49;3.40;;;2.87;;
14984;SDS011;7588;62.368;25.902;2023-06-04T07:57:14;3.03;;;2.73;;
14984;SDS011;7588;62.368;25.902;2023-06-04T07:59:40;3.93;;;2.90;;
14984;SDS011;7588;62.368;25.902;2023-06-04T08:02:06;3.57;;;2.63;;
14984;SDS011;7588;62.368;25.902;2023-06-04T08:04:31;2.63;;;2.42;;
14984;SDS011;7588;62.368;25.902;2023-06-04T08:06:58;2.97;;;2.65;;
14984;SDS011;7588;62.368;25.902;2023-06-04T08:09:24;2.92;;;2.38;;
14984;SDS011;7588;62.368;25.902;2023-06-04T08:11:50;4.07;;;2.10;;
14984;SDS011;7588;62.368;25.902;2023-06-04T08:14:16;2.10;;;1.90;;
14984;SDS011;7588;62.368;25.902;2023-06-04T08:16:41;2.47;;;2.17;;
14984;SDS011;7588;62.368;25.902;2023-06-04T08:19:07;2.05;;;1.70;;
14984;SDS011;7588;62.368;25.902;2023-06-04T08:21:33;2.25;;;1.80;;
14984;SDS011;7588;62.368;25.902;2023-06-04T08:23:59;1.70;;;1.60;;
14984;SDS011;7588;62.368;25.902;2023-06-04T08:26:25;1.48;;;1.38;;
14984;SDS011;7588;62.368;25.902;2023-06-04T08:28:54;1.42;;;1.25;;
14984;SDS011;7588;62.368;25.902;2023-06-04T08:31:20;1.60;;;1.50;;
14984;SDS011;7588;62.368;25.902;2023-06-04T08:33:46;2.08;;;1.50;;
14984;SDS011;7588;62.368;25.902;2023-06-04T08:36:13;1.90;;;1.80;;
14984;SDS011;7588;62.368;25.902;2023-06-04T08:38:39;1.63;;;1.53;;
14984;SDS011;7588;62.368;25.902;2023-06-04T08:41:13;1.63;;;1.52;;
14984;SDS011;7588;62.368;25.902;2023-06-04T08:43:42;1.37;;;1.27;;
14984;SDS011;7588;62.368;25.902;2023-06-04T08:46:09;1.70;;;1.60;;
14984;SDS011;7588;62.368;25.902;2023-06-04T08:48:35;3.05;;;1.77;;
14984;SDS011;7588;62.368;25.902;2023-06-04T08:51:02;1.83;;;1.48;;
14984;SDS011;7588;62.368;25.902;2023-06-04T08:53:33;1.55;;;1.45;;
14984;SDS011;7588;62.368;25.902;2023-06-04T08:56:00;1.58;;;1.48;;
14984;SDS011;7588;62.368;25.902;2023-06-04T08:58:27;1.60;;;1.50;;
14984;SDS011;7588;62.368;25.902;2023-06-04T09:00:57;1.48;;;1.38;;
14984;SDS011;7588;62.368;25.902;2023-06-04T09:03:25;1.60;;;1.50;;
14984;SDS011;7588;62.368;25.902;2023-06-04T09:05:51;1.45;;;1.35;;
14984;SDS011;7588;62.368;25.902;2023-06-04T09:08:18;1.73;;;1.63;;
14984;SDS011;7588;62.368;25.902;2023-06-04T09:10:44;1.27;;;1.17;;
14984;SDS011;7588;62.368;25.902;2023-06-04T09:13:16;2.67;;;1.40;;
14984;SDS011;7588;62.368;25.902;2023-06-04T09:15:43;1.70;;;1.33;;
14984;SDS011;7588;62.368;25.902;2023-06-04T09:18:10;1.50;;;1.40;;
14984;SDS011;7588;62.368;25.902;2023-06-04T09:20:37;1.48;;;1.15;;
14984;SDS011;7588;62.368;25.902;2023-06-04T09:23:12;2.90;;;1.67;;
14984;SDS011;7588;62.368;25.902;2023-06-04T09:25:41;1.07;;;1.07;;
14984;SDS011;7588;62.368;25.902;2023-06-04T09:28:08;1.43;;;1.33;;
14984;SDS011;7588;62.368;25.902;2023-06-04T09:30:33;1.43;;;1.33;;
14984;SDS011;7588;62.368;25.902;2023-06-04T09:33:07;1.53;;;1.43;;
14984;SDS011;7588;62.368;25.902;2023-06-04T09:35:33;1.40;;;1.30;;
14984;SDS011;7588;62.368;25.902;2023-06-04T09:37:59;1.83;;;1.20;;
14984;SDS011;7588;62.368;25.902;2023-06-04T09:40:34;1.50;;;1.40;;
14984;SDS011;7588;62.368;25.902;2023-06-04T09:43:01;2.08;;;1.20;;
14984;SDS011;7588;62.368;25.902;2023-06-04T09:47:57;2.95;;;1.50;;
14984;SDS011;7588;62.368;25.902;2023-06-04T09:50:27;3.22;;;1.60;;
14984;SDS011;7588;62.368;25.902;2023-06-04T09:52:55;1.52;;;1.42;;
14984;SDS011;7588;62.368;25.902;2023-06-04T09:55:21;1.48;;;1.13;;
14984;SDS011;7588;62.368;25.902;2023-06-04T09:57:48;1.23;;;1.13;;
14984;SDS011;7588;62.368;25.902;2023-06-04T10:00:19;1.55;;;1.10;;
14984;SDS011;7588;62.368;25.902;2023-06-04T10:02:48;2.85;;;1.02;;
14984;SDS011;7588;62.368;25.902;2023-06-04T10:05:15;2.40;;;1.17;;
14984;SDS011;7588;62.368;25.902;2023-06-04T10:07:42;3.80;;;1.48;;
14984;SDS011;7588;62.368;25.902;2023-06-04T10:10:11;1.10;;;1.10;;
14984;SDS011;7588;62.368;25.902;2023-06-04T10:12:45;1.27;;;1.17;;
14984;SDS011;7588;62.368;25.902;2023-06-04T10:15:19;0.85;;;0.85;;
14984;SDS011;7588;62.368;25.902;2023-06-04T10:17:46;1.23;;;1.15;;
14984;SDS011;7588;62.368;25.902;2023-06-04T10:20:13;1.40;;;1.08;;
14984;SDS011;7588;62.368;25.902;2023-06-04T10:22:39;2.40;;;1.10;;
14984;SDS011;7588;62.368;25.902;2023-06-04T10:25:06;3.20;;;1.10;;
14984;SDS011;7588;62.368;25.902;2023-06-04T10:27:35;1.10;;;1.10;;
14984;SDS011;7588;62.368;25.902;2023-06-04T10:30:02;1.17;;;0.90;;
14984;SDS011;7588;62.368;25.902;2023-06-04T10:32:29;1.23;;;1.13;;
14984;SDS011;7588;62.368;25.902;2023-06-04T10:34:55;1.30;;;1.20;;
14984;SDS011;7588;62.368;25.902;2023-06-04T10:37:25;1.30;;;0.90;;
14984;SDS011;7588;62.368;25.902;2023-06-04T10:39:52;0.80;;;0.80;;
14984;SDS011;7588;62.368;25.902;2023-06-04T10:42:21;3.10;;;1.38;;
14984;SDS011;7588;62.368;25.902;2023-06-04T10:44:51;1.13;;;1.00;;
14984;SDS011;7588;62.368;25.902;2023-06-04T10:49:47;1.30;;;1.30;;
14984;SDS011;7588;62.368;25.902;2023-06-04T10:52:12;1.20;;;1.10;;
14984;SDS011;7588;62.368;25.902;2023-06-04T10:54:38;1.30;;;1.17;;
14984;SDS011;7588;62.368;25.902;2023-06-04T10:57:11;1.60;;;1.50;;
14984;SDS011;7588;62.368;25.902;2023-06-04T10:59:37;1.60;;;1.50;;
14984;SDS011;7588;62.368;25.902;2023-06-04T11:02:09;1.60;;;1.50;;
14984;SDS011;7588;62.368;25.902;2023-06-04T11:04:35;1.03;;;1.03;;
14984;SDS011;7588;62.368;25.902;2023-06-04T11:07:05;1.20;;;1.20;;
14984;SDS011;7588;62.368;25.902;2023-06-04T11:09:35;1.40;;;1.30;;
14984;SDS011;7588;62.368;25.902;2023-06-04T11:12:03;1.98;;;1.77;;
14984;SDS011;7588;62.368;25.902;2023-06-04T11:14:30;3.83;;;1.80;;
14984;SDS011;7588;62.368;25.902;2023-06-04T11:16:56;1.80;;;1.70;;
14984;SDS011;7588;62.368;25.902;2023-06-04T11:19:22;2.50;;;1.50;;
14984;SDS011;7588;62.368;25.902;2023-06-04T11:21:48;2.80;;;1.50;;
14984;SDS011;7588;62.368;25.902;2023-06-04T11:24:15;2.23;;;2.03;;
14984;SDS011;7588;62.368;25.902;2023-06-04T11:26:41;2.13;;;1.60;;
14984;SDS011;7588;62.368;25.902;2023-06-04T11:29:08;2.33;;;1.90;;
14984;SDS011;7588;62.368;25.902;2023-06-04T11:31:46;4.30;;;1.57;;
14984;SDS011;7588;62.368;25.902;2023-06-04T11:34:22;3.97;;;1.50;;
14984;SDS011;7588;62.368;25.902;2023-06-04T11:36:52;1.87;;;1.70;;
14984;SDS011;7588;62.368;25.902;2023-06-04T11:39:18;1.47;;;1.37;;
14984;SDS011;7588;62.368;25.902;2023-06-04T11:41:44;1.63;;;1.50;;
14984;SDS011;7588;62.368;25.902;2023-06-04T11:44:11;1.70;;;1.10;;
14984;SDS011;7588;62.368;25.902;2023-06-04T11:46:41;1.37;;;1.27;;
14984;SDS011;7588;62.368;25.902;2023-06-04T11:49:16;1.43;;;1.20;;
14984;SDS011;7588;62.368;25.902;2023-06-04T11:51:46;7.13;;;1.50;;
14984;SDS011;7588;62.368;25.902;2023-06-04T11:54:13;1.30;;;1.20;;
14984;SDS011;7588;62.368;25.902;2023-06-04T11:56:40;1.30;;;1.30;;
14984;SDS011;7588;62.368;25.902;2023-06-04T11:59:09;1.17;;;1.17;;
14984;SDS011;7588;62.368;25.902;2023-06-04T12:01:38;1.60;;;1.50;;
14984;SDS011;7588;62.368;25.902;2023-06-04T12:04:14;1.50;;;1.40;;
14984;SDS011;7588;62.368;25.902;2023-06-04T12:09:23;2.10;;;1.60;;
14984;SDS011;7588;62.368;25.902;2023-06-04T12:11:57;1.90;;;1.50;;
14984;SDS011;7588;62.368;25.902;2023-06-04T12:14:24;2.03;;;1.47;;
14984;SDS011;7588;62.368;25.902;2023-06-04T12:19:24;1.73;;;1.33;;
14984;SDS011;7588;62.368;25.902;2023-06-04T12:22:06;1.73;;;1.30;;
14984;SDS011;7588;62.368;25.902;2023-06-04T12:24:45;2.03;;;1.10;;
14984;SDS011;7588;62.368;25.902;2023-06-04T12:27:13;1.83;;;1.37;;
14984;SDS011;7588;62.368;25.902;2023-06-04T12:29:39;1.50;;;0.90;;
14984;SDS011;7588;62.368;25.902;2023-06-04T12:32:08;1.07;;;0.97;;
14984;SDS011;7588;62.368;25.902;2023-06-04T12:34:38;0.90;;;0.90;;
14984;SDS011;7588;62.368;25.902;2023-06-04T12:37:05;1.30;;;1.20;;
14984;SDS011;7588;62.368;25.902;2023-06-04T12:39:35;0.90;;;0.90;;
14984;SDS011;7588;62.368;25.902;2023-06-04T12:42:07;1.20;;;1.10;;
14984;SDS011;7588;62.368;25.902;2023-06-04T12:44:36;0.70;;;0.70;;
14984;SDS011;7588;62.368;25.902;2023-06-04T12:47:03;0.80;;;0.80;;
14984;SDS011;7588;62.368;25.902;2023-06-04T12:49:29;0.80;;;0.80;;
14984;SDS011;7588;62.368;25.902;2023-06-04T12:51:55;1.02;;;0.80;;
14984;SDS011;7588;62.368;25.902;2023-06-04T12:54:21;1.02;;;1.02;;
14984;SDS011;7588;62.368;25.902;2023-06-04T12:56:47;0.80;;;0.80;;
14984;SDS011;7588;62.368;25.902;2023-06-04T12:59:13;3.83;;;0.73;;
14984;SDS011;7588;62.368;25.902;2023-06-04T13:01:38;0.88;;;0.70;;
14984;SDS011;7588;62.368;25.902;2023-06-04T13:04:04;2.83;;;0.73;;
14984;SDS011;7588;62.368;25.902;2023-06-04T13:06:31;0.70;;;0.70;;
14984;SDS011;7588;62.368;25.902;2023-06-04T13:08:57;0.80;;;0.80;;
14984;SDS011;7588;62.368;25.902;2023-06-04T13:11:22;0.65;;;0.65;;
14984;SDS011;7588;62.368;25.902;2023-06-04T13:13:49;0.85;;;0.85;;
14984;SDS011;7588;62.368;25.902;2023-06-04T13:16:15;0.70;;;0.70;;
14984;SDS011;7588;62.368;25.902;2023-06-04T13:18:40;0.80;;;0.80;;
14984;SDS011;7588;62.368;25.902;2023-06-04T13:21:06;1.08;;;0.90;;
14984;SDS011;7588;62.368;25.902;2023-06-04T13:23:32;1.35;;;0.77;;
14984;SDS011;7588;62.368;25.902;2023-06-04T13:25:57;0.82;;;0.80;;
14984;SDS011;7588;62.368;25.902;2023-06-04T13:28:23;0.70;;;0.70;;
14984;SDS011;7588;62.368;25.902;2023-06-04T13:30:49;1.58;;;0.80;;
14984;SDS011;7588;62.368;25.902;2023-06-04T13:33:14;0.80;;;0.80;;
14984;SDS011;7588;62.368;25.902;2023-06-04T13:35:41;1.07;;;0.80;;
14984;SDS011;7588;62.368;25.902;2023-06-04T13:38:07;0.90;;;0.90;;
14984;SDS011;7588;62.368;25.902;2023-06-04T13:40:36;0.80;;;0.80;;
14984;SDS011;7588;62.368;25.902;2023-06-04T13:43:02;0.80;;;0.80;;
14984;SDS011;7588;62.368;25.902;2023-06-04T13:45:28;1.07;;;0.97;;
14984;SDS011;7588;62.368;25.902;2023-06-04T13:47:53;2.53;;;1.30;;
14984;SDS011;7588;62.368;25.902;2023-06-04T13:50:19;3.53;;;0.90;;
14984;SDS011;7588;62.368;25.902;2023-06-04T13:52:45;1.57;;;0.90;;
14984;SDS011;7588;62.368;25.902;2023-06-04T13:55:12;1.03;;;0.93;;
14984;SDS011;7588;62.368;25.902;2023-06-04T13:57:38;3.27;;;1.00;;
14984;SDS011;7588;62.368;25.902;2023-06-04T14:00:04;1.20;;;1.03;;
14984;SDS011;7588;62.368;25.902;2023-06-04T14:02:31;5.50;;;1.30;;
14984;SDS011;7588;62.368;25.902;2023-06-04T14:04:57;2.93;;;1.10;;
14984;SDS011;7588;62.368;25.902;2023-06-04T14:07:23;0.80;;;0.80;;
14984;SDS011;7588;62.368;25.902;2023-06-04T14:09:49;2.17;;;1.10;;
14984;SDS011;7588;62.368;25.902;2023-06-04T14:12:19;0.87;;;0.87;;
14984;SDS011;7588;62.368;25.902;2023-06-04T14:14:49;0.90;;;0.90;;
14984;SDS011;7588;62.368;25.902;2023-06-04T14:17:15;4.07;;;1.10;;
14984;SDS011;7588;62.368;25.902;2023-06-04T14:19:41;2.60;;;1.30;;
14984;SDS011;7588;62.368;25.902;2023-06-04T14:22:07;1.20;;;0.90;;
14984;SDS011;7588;62.368;25.902;2023-06-04T14:24:32;1.30;;;0.60;;
14984;SDS011;7588;62.368;25.902;2023-06-04T14:26:58;2.43;;;1.00;;
14984;SDS011;7588;62.368;25.902;2023-06-04T14:29:24;0.60;;;0.60;;
14984;SDS011;7588;62.368;25.902;2023-06-04T14:31:50;1.00;;;0.80;;
14984;SDS011;7588;62.368;25.902;2023-06-04T14:34:15;0.90;;;0.90;;
14984;SDS011;7588;62.368;25.902;2023-06-04T14:36:41;3.50;;;1.13;;
14984;SDS011;7588;62.368;25.902;2023-06-04T14:39:07;0.90;;;0.90;;
14984;SDS011;7588;62.368;25.902;2023-06-04T14:41:32;1.20;;;1.10;;
14984;SDS011;7588;62.368;25.902;2023-06-04T14:43:58;0.83;;;0.60;;
14984;SDS011;7588;62.368;25.902;2023-06-04T14:46:24;0.70;;;0.70;;
14984;SDS011;7588;62.368;25.902;2023-06-04T14:48:51;0.90;;;0.90;;
14984;SDS011;7588;62.368;25.902;2023-06-04T14:51:17;0.80;;;0.80;;
14984;SDS011;7588;62.368;25.902;2023-06-04T14:53:42;0.80;;;0.80;;
14984;SDS011;7588;62.368;25.902;2023-06-04T14:56:08;1.43;;;1.00;;